Time;durP1;ratioP1;P1;durP2;ratioP2;P2;SDS_P1;SDS_P2;PMS_P1;PMS_P2;Temp;Humidity;BMP_temperature;BMP_pressure;BME280_temperature;BME280_humidity;BME280_pressure;Samples;Min_cycle;Max_cycle;Signal;HPM_P1;HPM_P2
2023/04/03 00:00:53;;;;;;;2.20;1.67;;;5.10;98.00;;;;;;5011783;28;20465;-70
2023/04/03 00:03:21;;;;;;;2.20;1.60;;;5.00;98.00;;;;;;5011809;28;20582;-69
2023/04/03 00:05:48;;;;;;;2.23;1.53;;;5.00;98.00;;;;;;5011789;28;20517;-70
2023/04/03 00:08:17;;;;;;;1.40;1.23;;;5.10;98.00;;;;;;5011995;28;20533;-70
2023/04/03 00:10:45;;;;;;;3.27;1.70;;;5.10;98.00;;;;;;5011479;28;20471;-69
2023/04/03 00:13:12;;;;;;;1.77;1.50;;;5.00;98.00;;;;;;5011795;28;20889;-69
2023/04/03 00:15:42;;;;;;;1.37;1.30;;;5.00;98.00;;;;;;5011960;28;20469;-69
2023/04/03 00:18:09;;;;;;;1.60;1.40;;;4.90;98.00;;;;;;5011755;28;20490;-70
2023/04/03 00:20:37;;;;;;;1.57;1.30;;;4.80;98.00;;;;;;5011967;28;20488;-70
2023/04/03 00:23:04;;;;;;;1.47;1.43;;;4.70;98.00;;;;;;5011484;28;20521;-70
2023/04/03 00:25:31;;;;;;;2.70;1.67;;;4.80;98.00;;;;;;5011364;28;20453;-69
2023/04/03 00:27:59;;;;;;;2.80;1.93;;;4.90;98.00;;;;;;5011452;28;20496;-69
2023/04/03 00:30:29;;;;;;;2.93;1.80;;;5.00;98.00;;;;;;5011647;28;20463;-69
2023/04/03 00:32:57;;;;;;;1.67;1.33;;;5.00;98.00;;;;;;5011394;28;20458;-69
2023/04/03 00:35:25;;;;;;;2.30;2.03;;;5.10;98.00;;;;;;5011391;28;20455;-69
2023/04/03 00:37:52;;;;;;;1.60;1.47;;;5.10;98.00;;;;;;5011314;28;20490;-70
2023/04/03 00:40:23;;;;;;;1.90;1.43;;;5.00;98.00;;;;;;5011250;28;20558;-69
2023/04/03 00:42:55;;;;;;;2.40;1.57;;;4.80;98.00;;;;;;5011209;28;20459;-69
2023/04/03 00:45:34;;;;;;;2.40;1.77;;;4.80;98.00;;;;;;5010009;28;20558;-69
2023/04/03 00:48:06;;;;;;;2.43;1.87;;;4.80;98.00;;;;;;5011360;28;20794;-69
2023/04/03 00:50:37;;;;;;;1.67;1.60;;;4.80;98.00;;;;;;5011224;28;20450;-69
2023/04/03 00:53:14;;;;;;;2.53;1.40;;;5.00;98.00;;;;;;5015201;28;20455;-69
2023/04/03 00:55:43;;;;;;;2.17;1.67;;;4.90;98.00;;;;;;5014960;28;20848;-69
2023/04/03 00:58:12;;;;;;;1.53;1.40;;;4.90;98.00;;;;;;5014953;28;20486;-69
2023/04/03 01:00:44;;;;;;;2.97;1.57;;;4.90;98.00;;;;;;5015003;28;20468;-69
2023/04/03 01:03:11;;;;;;;2.60;1.53;;;4.90;98.00;;;;;;5015012;28;20455;-70
2023/04/03 01:05:38;;;;;;;1.90;1.83;;;4.80;98.00;;;;;;5015002;28;20462;-70
2023/04/03 01:08:06;;;;;;;1.83;1.67;;;4.90;98.00;;;;;;5014973;28;20468;-69
2023/04/03 01:10:33;;;;;;;1.93;1.20;;;4.90;98.00;;;;;;5015051;28;20545;-70
2023/04/03 01:13:01;;;;;;;1.70;1.67;;;4.70;98.00;;;;;;5014860;28;20875;-69
2023/04/03 01:15:34;;;;;;;1.80;1.60;;;4.70;98.00;;;;;;5014792;28;20555;-69
2023/04/03 01:18:04;;;;;;;3.37;1.57;;;4.70;98.00;;;;;;5013568;28;20710;-69
2023/04/03 01:21:01;;;;;;;1.80;1.80;;;4.60;98.00;;;;;;5014832;28;20463;-70
2023/04/03 01:23:36;;;;;;;2.33;1.47;;;4.60;98.00;;;;;;5014947;28;20451;-70
2023/04/03 01:26:03;;;;;;;1.77;1.50;;;4.60;98.00;;;;;;5014204;28;20456;-70
2023/04/03 01:28:32;;;;;;;1.73;1.60;;;4.50;98.00;;;;;;5014429;28;20519;-69
2023/04/03 01:31:11;;;;;;;1.50;1.43;;;4.40;98.00;;;;;;5014575;28;20458;-69
2023/04/03 01:33:40;;;;;;;2.40;1.60;;;4.40;98.00;;;;;;5013499;28;20539;-69
2023/04/03 01:36:10;;;;;;;2.87;1.53;;;4.50;98.00;;;;;;4996859;28;20965;-69
2023/04/03 01:38:38;;;;;;;1.87;1.50;;;4.40;98.00;;;;;;5014040;28;20485;-69
2023/04/03 01:41:07;;;;;;;2.63;1.77;;;4.30;98.00;;;;;;5014570;28;20497;-70
2023/04/03 01:43:34;;;;;;;4.30;1.83;;;4.40;98.00;;;;;;5014255;28;20455;-69
2023/04/03 01:46:03;;;;;;;3.10;1.80;;;4.20;98.00;;;;;;5014481;28;20860;-70
2023/04/03 01:48:30;;;;;;;3.20;1.50;;;4.20;98.00;;;;;;5014042;28;20465;-70
2023/04/03 01:51:02;;;;;;;2.00;1.47;;;4.30;98.00;;;;;;5014270;28;20530;-69
2023/04/03 01:53:29;;;;;;;1.77;1.30;;;4.30;98.00;;;;;;5014020;28;20516;-69
2023/04/03 01:55:56;;;;;;;2.17;1.80;;;4.20;98.00;;;;;;5014121;28;20453;-70
2023/04/03 01:58:23;;;;;;;2.30;1.47;;;4.10;98.00;;;;;;5013861;28;20521;-69
2023/04/03 02:00:50;;;;;;;2.17;1.40;;;4.10;98.00;;;;;;5014135;28;20585;-69
2023/04/03 02:03:17;;;;;;;3.37;1.57;;;4.00;98.00;;;;;;5012557;28;20969;-70
2023/04/03 02:05:45;;;;;;;1.53;1.30;;;4.10;98.00;;;;;;5014064;28;21076;-69
2023/04/03 02:08:14;;;;;;;1.73;1.43;;;4.20;98.00;;;;;;5014046;28;20603;-69
2023/04/03 02:10:41;;;;;;;2.37;1.60;;;4.20;98.00;;;;;;5014027;28;20471;-70
2023/04/03 02:13:08;;;;;;;2.03;1.63;;;4.20;98.00;;;;;;5013849;28;21002;-69
2023/04/03 02:15:35;;;;;;;1.87;1.70;;;4.20;98.00;;;;;;5013913;28;20468;-69
2023/04/03 02:18:02;;;;;;;4.03;1.73;;;4.30;98.00;;;;;;5013750;28;20488;-70
2023/04/03 02:20:30;;;;;;;3.07;1.80;;;4.20;98.00;;;;;;5013738;28;20863;-70
2023/04/03 02:22:57;;;;;;;2.97;1.60;;;4.20;98.00;;;;;;5012514;28;20467;-70
2023/04/03 02:25:25;;;;;;;2.07;1.70;;;4.20;98.00;;;;;;5013367;28;20501;-69
2023/04/03 02:27:52;;;;;;;1.40;1.20;;;4.20;98.00;;;;;;5013258;28;20460;-70
2023/04/03 02:30:22;;;;;;;1.97;1.47;;;4.40;98.00;;;;;;5013519;28;20465;-70
2023/04/03 02:32:49;;;;;;;2.17;1.60;;;4.40;98.00;;;;;;5013380;28;20961;-69
2023/04/03 02:35:16;;;;;;;2.70;1.83;;;4.50;98.00;;;;;;5013599;28;20525;-69
2023/04/03 02:37:44;;;;;;;1.50;1.20;;;4.50;98.00;;;;;;5013116;28;20494;-70
2023/04/03 02:40:12;;;;;;;2.60;1.47;;;4.50;98.00;;;;;;5013093;28;20546;-70
2023/04/03 02:42:41;;;;;;;3.20;1.77;;;4.50;98.00;;;;;;5013601;28;20466;-69
2023/04/03 02:45:09;;;;;;;3.87;2.03;;;4.60;98.00;;;;;;5013892;28;20511;-69
2023/04/03 02:47:36;;;;;;;2.43;1.90;;;4.50;98.00;;;;;;5013537;28;20455;-69
2023/04/03 02:50:05;;;;;;;1.97;1.57;;;4.50;98.00;;;;;;5014138;28;20879;-69
2023/04/03 02:52:32;;;;;;;2.13;1.40;;;4.50;98.00;;;;;;5013108;28;20501;-69
2023/04/03 02:54:59;;;;;;;3.50;1.67;;;4.50;98.00;;;;;;5013259;28;20488;-69
2023/04/03 02:57:29;;;;;;;2.47;1.63;;;4.60;98.00;;;;;;5012807;28;20495;-70
2023/04/03 02:59:59;;;;;;;3.73;1.70;;;4.60;98.00;;;;;;5011820;28;20485;-69
2023/04/03 03:02:27;;;;;;;1.60;1.30;;;4.70;98.00;;;;;;5012791;28;20464;-69
2023/04/03 03:04:54;;;;;;;2.47;1.63;;;4.80;98.00;;;;;;5013083;28;20533;-69
2023/04/03 03:07:21;;;;;;;2.47;1.60;;;4.90;98.00;;;;;;5012995;28;20886;-69
2023/04/03 03:09:49;;;;;;;2.33;1.70;;;4.90;98.00;;;;;;5012992;28;20553;-69
2023/04/03 03:12:21;;;;;;;2.40;1.73;;;4.80;98.00;;;;;;5012846;28;20536;-69
2023/04/03 03:14:49;;;;;;;2.47;1.77;;;4.80;98.00;;;;;;5012186;28;20817;-68
2023/04/03 03:17:18;;;;;;;4.80;1.67;;;4.80;98.00;;;;;;5011452;28;20493;-69
2023/04/03 03:19:45;;;;;;;3.10;1.80;;;4.70;98.00;;;;;;5013021;28;20466;-69
2023/04/03 03:22:15;;;;;;;1.90;1.50;;;4.80;98.00;;;;;;5012482;28;20881;-69
2023/04/03 03:24:45;;;;;;;1.30;1.23;;;4.80;98.00;;;;;;5012366;28;20461;-69
2023/04/03 03:27:12;;;;;;;1.50;1.30;;;4.90;98.00;;;;;;5012294;28;20466;-69
2023/04/03 03:29:39;;;;;;;4.00;1.63;;;4.90;98.00;;;;;;5012121;28;20546;-69
2023/04/03 03:32:06;;;;;;;3.20;1.97;;;4.90;98.00;;;;;;5012493;28;20458;-70
2023/04/03 03:34:36;;;;;;;2.37;1.47;;;4.90;98.00;;;;;;5012192;28;20484;-69
2023/04/03 03:37:04;;;;;;;1.70;1.30;;;4.80;98.00;;;;;;5012176;28;21099;-70
2023/04/03 03:39:31;;;;;;;1.50;1.47;;;4.90;98.00;;;;;;5011873;28;20499;-70
2023/04/03 03:41:58;;;;;;;1.60;1.30;;;4.90;98.00;;;;;;5012121;28;20455;-69
2023/04/03 03:44:28;;;;;;;2.60;1.73;;;4.90;98.00;;;;;;5011992;28;20981;-69
2023/04/03 03:46:56;;;;;;;1.23;1.20;;;4.80;98.00;;;;;;5012250;28;20468;-70
2023/04/03 03:49:23;;;;;;;2.17;1.73;;;4.80;98.00;;;;;;5012274;28;20459;-69
2023/04/03 03:51:52;;;;;;;1.60;1.30;;;4.90;98.00;;;;;;5011880;28;20467;-69
2023/04/03 03:54:19;;;;;;;2.00;1.60;;;4.90;98.00;;;;;;5011967;28;20548;-70
2023/04/03 03:56:46;;;;;;;2.47;1.60;;;4.90;98.00;;;;;;5010734;28;20460;-69
2023/04/03 03:59:16;;;;;;;3.77;1.90;;;5.00;98.00;;;;;;5011920;28;20486;-69
2023/04/03 04:01:43;;;;;;;2.90;1.93;;;5.00;98.00;;;;;;5011862;28;20463;-70
2023/04/03 04:04:10;;;;;;;2.20;1.63;;;5.00;98.00;;;;;;5011717;28;20456;-69
2023/04/03 04:06:38;;;;;;;5.23;1.97;;;4.90;98.00;;;;;;5011718;28;20890;-70
2023/04/03 04:09:06;;;;;;;1.60;1.30;;;4.90;98.00;;;;;;5012016;28;20462;-70
2023/04/03 04:11:33;;;;;;;1.53;1.30;;;4.90;98.00;;;;;;5012049;28;20461;-70
2023/04/03 04:14:00;;;;;;;2.60;1.70;;;5.00;98.00;;;;;;5010443;28;20465;-69
2023/04/03 04:16:27;;;;;;;1.70;1.60;;;4.90;98.00;;;;;;5010466;28;20508;-69
2023/04/03 04:18:54;;;;;;;2.70;1.40;;;4.90;98.00;;;;;;5011205;28;20495;-70
2023/04/03 04:21:23;;;;;;;1.67;1.37;;;4.90;98.00;;;;;;5011782;28;20467;-70
2023/04/03 04:23:50;;;;;;;2.10;1.40;;;4.90;98.00;;;;;;5011510;28;20467;-70
2023/04/03 04:26:18;;;;;;;1.60;1.60;;;4.90;98.00;;;;;;5010794;28;20461;-69
2023/04/03 04:28:45;;;;;;;1.70;1.50;;;4.90;98.00;;;;;;5011343;28;20465;-69
2023/04/03 04:31:12;;;;;;;2.17;1.60;;;4.80;98.00;;;;;;5010146;28;20468;-69
2023/04/03 04:33:40;;;;;;;4.63;1.77;;;4.80;98.00;;;;;;5011304;28;20872;-69
2023/04/03 04:36:07;;;;;;;3.33;1.90;;;4.80;98.00;;;;;;5011469;28;20957;-70
2023/04/03 04:38:35;;;;;;;4.07;2.23;;;4.90;98.00;;;;;;5011314;28;20518;-70
2023/04/03 04:41:05;;;;;;;2.70;1.93;;;5.00;98.00;;;;;;5010733;28;20541;-70
2023/04/03 04:43:33;;;;;;;1.60;1.27;;;5.00;98.00;;;;;;5011068;28;20467;-69
2023/04/03 04:46:05;;;;;;;2.27;1.67;;;4.90;98.00;;;;;;5011725;28;20462;-69
2023/04/03 04:48:35;;;;;;;3.33;1.80;;;4.80;98.00;;;;;;5009804;28;20802;-69
2023/04/03 04:51:02;;;;;;;1.30;1.20;;;4.90;98.00;;;;;;5011464;28;20453;-69
2023/04/03 04:53:29;;;;;;;2.20;1.90;;;4.90;98.00;;;;;;5011186;28;20451;-70
2023/04/03 04:55:57;;;;;;;1.70;1.53;;;4.90;98.00;;;;;;5011491;28;20465;-69
2023/04/03 04:58:24;;;;;;;1.40;1.30;;;4.90;98.00;;;;;;5011088;28;20994;-69
2023/04/03 05:00:59;;;;;;;4.30;1.67;;;4.90;98.00;;;;;;5011176;28;20562;-69
2023/04/03 05:03:26;;;;;;;1.70;1.33;;;4.90;98.00;;;;;;5011270;28;20457;-70
2023/04/03 05:05:55;;;;;;;3.50;1.70;;;4.90;98.00;;;;;;5011294;28;20466;-70
2023/04/03 05:08:22;;;;;;;2.70;1.70;;;4.90;98.00;;;;;;5010992;28;20537;-69
2023/04/03 05:10:49;;;;;;;2.70;1.70;;;4.90;98.00;;;;;;5011066;28;20451;-69
2023/04/03 05:13:18;;;;;;;4.50;1.70;;;4.80;98.00;;;;;;5010028;28;20513;-69
2023/04/03 05:15:45;;;;;;;2.80;1.60;;;4.80;98.00;;;;;;5011008;28;20464;-69
2023/04/03 05:18:14;;;;;;;1.93;1.40;;;4.80;98.00;;;;;;5010913;28;20560;-70
2023/04/03 05:20:43;;;;;;;2.30;1.80;;;4.90;98.00;;;;;;5009773;28;20467;-70
2023/04/03 05:23:11;;;;;;;5.30;1.90;;;4.90;98.00;;;;;;5010848;28;20462;-69
2023/04/03 05:25:38;;;;;;;4.60;1.83;;;4.80;98.00;;;;;;5010772;28;20463;-69
2023/04/03 05:28:06;;;;;;;2.90;1.80;;;4.80;98.00;;;;;;5010918;28;20457;-70
2023/04/03 05:30:33;;;;;;;2.03;1.50;;;4.90;98.00;;;;;;5011119;28;20462;-70
2023/04/03 05:33:00;;;;;;;3.47;1.70;;;4.70;98.00;;;;;;5011056;28;20965;-69
2023/04/03 05:35:29;;;;;;;2.53;1.80;;;4.60;98.00;;;;;;5010877;28;20464;-70
2023/04/03 05:37:56;;;;;;;1.67;1.50;;;4.50;98.00;;;;;;5012632;28;20945;-69
2023/04/03 05:40:24;;;;;;;1.43;1.10;;;4.40;98.00;;;;;;5013801;28;20528;-70
2023/04/03 05:42:53;;;;;;;2.27;1.70;;;4.40;98.00;;;;;;5014217;28;20545;-70
2023/04/03 05:45:20;;;;;;;2.17;1.70;;;4.60;98.00;;;;;;5013000;28;20455;-69
2023/04/03 05:47:48;;;;;;;2.50;1.50;;;4.70;98.00;;;;;;5014390;28;20544;-69
2023/04/03 05:50:16;;;;;;;2.23;1.50;;;4.80;98.00;;;;;;5015157;28;20549;-70
2023/04/03 05:52:48;;;;;;;2.57;1.63;;;4.70;98.00;;;;;;5034136;28;20456;-69
2023/04/03 05:55:15;;;;;;;2.13;1.67;;;4.60;98.00;;;;;;5034096;28;20873;-70
2023/04/03 05:57:46;;;;;;;1.47;1.27;;;4.70;98.00;;;;;;5033652;28;20502;-69
2023/04/03 06:00:15;;;;;;;2.23;1.60;;;4.70;98.00;;;;;;5033739;28;20487;-69
2023/04/03 06:02:43;;;;;;;2.83;1.87;;;4.90;98.00;;;;;;5033627;28;20537;-63
2023/04/03 06:05:11;;;;;;;2.20;1.60;;;4.90;98.00;;;;;;5033963;28;20470;-67
2023/04/03 06:07:38;;;;;;;1.87;1.40;;;4.80;98.00;;;;;;5033703;28;20559;-64
2023/04/03 06:10:09;;;;;;;2.57;1.60;;;4.90;98.00;;;;;;5033741;28;20461;-63
2023/04/03 06:12:36;;;;;;;3.53;1.50;;;5.00;98.00;;;;;;5033498;28;20456;-63
2023/04/03 06:15:05;;;;;;;2.83;1.60;;;5.10;98.00;;;;;;5033646;28;20484;-63
2023/04/03 06:17:32;;;;;;;1.80;1.50;;;5.10;98.00;;;;;;5033312;28;20461;-64
2023/04/03 06:20:00;;;;;;;6.27;1.60;;;5.20;98.00;;;;;;5033426;28;20495;-64
2023/04/03 06:22:29;;;;;;;3.37;1.60;;;5.20;98.00;;;;;;5031991;28;20463;-63
2023/04/03 06:24:56;;;;;;;2.57;1.93;;;5.30;98.00;;;;;;5033466;28;20958;-64
2023/04/03 06:27:25;;;;;;;1.87;1.63;;;5.40;98.00;;;;;;5031892;28;20460;-65
2023/04/03 06:29:52;;;;;;;1.50;1.40;;;5.40;98.00;;;;;;5033312;28;20468;-64
2023/04/03 06:32:19;;;;;;;2.70;1.80;;;5.40;98.00;;;;;;5033098;28;20458;-65
2023/04/03 06:34:46;;;;;;;1.67;1.37;;;5.30;98.00;;;;;;5032954;28;20469;-64
2023/04/03 06:37:16;;;;;;;2.63;1.53;;;5.30;98.00;;;;;;5033262;28;20550;-63
2023/04/03 06:39:45;;;;;;;1.80;1.50;;;5.30;98.00;;;;;;5031593;28;20889;-63
2023/04/03 06:42:13;;;;;;;2.43;1.63;;;5.50;98.00;;;;;;5033001;28;20556;-64
2023/04/03 06:44:41;;;;;;;1.43;1.33;;;5.40;98.00;;;;;;5033173;28;20537;-63
2023/04/03 06:47:12;;;;;;;3.23;1.57;;;5.40;98.00;;;;;;5032926;28;20519;-64
2023/04/03 06:49:41;;;;;;;1.83;1.63;;;5.30;98.00;;;;;;5032062;28;20516;-64
2023/04/03 06:52:08;;;;;;;2.03;1.43;;;5.20;98.00;;;;;;5032466;28;20457;-64
2023/04/03 06:54:36;;;;;;;2.33;1.70;;;5.30;98.00;;;;;;5032867;28;20464;-63
2023/04/03 06:57:04;;;;;;;3.93;1.77;;;5.30;98.00;;;;;;5032142;28;20546;-64
2023/04/03 06:59:31;;;;;;;3.50;1.60;;;5.40;98.00;;;;;;5032146;28;20491;-64
2023/04/03 07:02:05;;;;;;;1.97;1.53;;;5.60;98.00;;;;;;5032804;28;20473;-64
2023/04/03 07:04:32;;;;;;;2.27;1.73;;;5.60;98.00;;;;;;5033440;28;20861;-64
2023/04/03 07:07:00;;;;;;;3.37;1.80;;;5.70;98.00;;;;;;5033411;28;20522;-64
2023/04/03 07:09:27;;;;;;;2.33;1.47;;;5.70;98.00;;;;;;5032984;28;20824;-63
2023/04/03 07:11:54;;;;;;;3.13;1.47;;;5.80;98.00;;;;;;5033108;28;21190;-63
2023/04/03 07:14:22;;;;;;;4.63;1.70;;;5.90;98.00;;;;;;5015513;28;20474;-64
2023/04/03 07:16:49;;;;;;;4.33;1.50;;;5.90;98.00;;;;;;5012654;28;21047;-64
2023/04/03 07:19:18;;;;;;;1.80;1.60;;;5.90;98.00;;;;;;5013043;28;20579;-64
2023/04/03 07:21:47;;;;;;;1.50;1.40;;;6.00;98.00;;;;;;5013204;28;20787;-63
2023/04/03 07:24:14;;;;;;;2.53;1.50;;;6.10;98.00;;;;;;5012609;28;21140;-63
2023/04/03 07:26:41;;;;;;;3.37;2.17;;;6.10;98.00;;;;;;5013223;28;20473;-63
2023/04/03 07:29:09;;;;;;;2.20;1.77;;;6.10;98.00;;;;;;5013062;28;20525;-64
2023/04/03 07:31:36;;;;;;;1.83;1.53;;;6.00;98.00;;;;;;5012912;28;20549;-62
2023/04/03 07:34:03;;;;;;;2.43;1.80;;;6.00;98.00;;;;;;5012893;28;20504;-64
2023/04/03 07:36:33;;;;;;;3.33;1.60;;;6.10;98.00;;;;;;5012958;28;20471;-64
2023/04/03 07:39:00;;;;;;;2.40;1.73;;;6.20;98.00;;;;;;5012693;28;21086;-65
2023/04/03 07:41:28;;;;;;;2.97;1.83;;;6.30;98.00;;;;;;5013166;28;20465;-63
2023/04/03 07:43:57;;;;;;;2.63;1.90;;;6.30;98.00;;;;;;5012925;28;20572;-64
2023/04/03 07:46:24;;;;;;;4.20;2.47;;;6.30;98.00;;;;;;5012890;28;20505;-65
2023/04/03 07:48:52;;;;;;;2.70;1.87;;;6.30;98.00;;;;;;5012860;28;20473;-63
2023/04/03 07:51:19;;;;;;;4.07;2.20;;;6.40;98.00;;;;;;5011587;28;21006;-64
2023/04/03 07:53:48;;;;;;;2.73;1.53;;;6.50;98.00;;;;;;5012545;28;20458;-65
2023/04/03 07:56:17;;;;;;;2.60;1.77;;;6.40;98.00;;;;;;5012280;28;20942;-64
2023/04/03 07:58:45;;;;;;;1.83;1.50;;;6.30;98.00;;;;;;5010679;28;20815;-64
2023/04/03 08:01:12;;;;;;;2.03;1.70;;;6.30;98.00;;;;;;5012044;28;20467;-63
2023/04/03 08:03:40;;;;;;;2.33;1.73;;;6.30;98.00;;;;;;5011108;28;20483;-64
2023/04/03 08:06:09;;;;;;;2.07;1.77;;;6.30;98.00;;;;;;5012426;28;20460;-64
2023/04/03 08:08:36;;;;;;;2.83;1.63;;;6.40;98.00;;;;;;5012480;28;20634;-65
2023/04/03 08:11:07;;;;;;;1.87;1.63;;;6.50;98.00;;;;;;5012882;28;21001;-63
2023/04/03 08:13:35;;;;;;;3.30;1.53;;;6.70;98.00;;;;;;5012326;28;20489;-63
2023/04/03 08:16:09;;;;;;;2.80;1.87;;;6.70;98.00;;;;;;5011323;28;20463;-63
2023/04/03 08:18:39;;;;;;;4.13;2.33;;;6.80;98.00;;;;;;5012039;28;20460;-65
2023/04/03 08:21:08;;;;;;;4.50;1.90;;;6.80;98.00;;;;;;5011261;28;20456;-64
2023/04/03 08:23:35;;;;;;;2.40;1.87;;;6.90;98.00;;;;;;5010770;28;20456;-64
2023/04/03 08:26:09;;;;;;;2.73;1.80;;;6.80;98.00;;;;;;5012160;28;20490;-63
2023/04/03 08:28:36;;;;;;;2.80;1.70;;;6.90;98.00;;;;;;5012205;28;20987;-63
2023/04/03 08:31:07;;;;;;;4.80;2.07;;;6.90;98.00;;;;;;5011977;28;20513;-65
2023/04/03 08:33:35;;;;;;;2.37;1.93;;;6.80;98.00;;;;;;5010731;28;20547;-64
2023/04/03 08:36:04;;;;;;;6.33;2.10;;;6.90;98.00;;;;;;5012233;28;20521;-65
2023/04/03 08:38:31;;;;;;;11.50;2.80;;;7.10;98.00;;;;;;5012040;28;20978;-65
2023/04/03 08:41:13;;;;;;;9.53;2.40;;;7.30;98.00;;;;;;5011890;28;20495;-64
2023/04/03 08:43:52;;;;;;;4.07;2.00;;;7.40;98.00;;;;;;5012447;28;20517;-64
2023/04/03 08:46:25;;;;;;;1.70;1.50;;;7.60;98.00;;;;;;5011110;28;20464;-63
2023/04/03 08:48:54;;;;;;;2.50;1.83;;;7.60;98.00;;;;;;5012048;28;20471;-63
2023/04/03 08:51:23;;;;;;;1.77;1.67;;;7.70;98.00;;;;;;5012145;28;20466;-63
2023/04/03 08:53:58;;;;;;;2.97;2.47;;;7.70;98.00;;;;;;5010931;28;20517;-65
2023/04/03 08:56:28;;;;;;;2.17;1.80;;;7.70;98.00;;;;;;5012157;28;20521;-64
2023/04/03 08:58:59;;;;;;;2.13;1.63;;;7.70;98.00;;;;;;5011917;28;20461;-64
2023/04/03 09:01:29;;;;;;;4.17;2.57;;;7.80;98.00;;;;;;5012152;28;20459;-63
2023/04/03 09:03:56;;;;;;;3.30;2.00;;;7.90;98.00;;;;;;5011969;28;20825;-65
2023/04/03 09:06:28;;;;;;;3.33;2.60;;;7.90;98.00;;;;;;5011856;28;20461;-65
2023/04/03 09:09:08;;;;;;;3.20;1.97;;;8.00;98.00;;;;;;5012041;28;20463;-65
2023/04/03 09:11:48;;;;;;;2.10;1.80;;;7.80;98.00;;;;;;5012153;28;20469;-64
2023/04/03 09:14:25;;;;;;;2.07;1.90;;;7.80;98.00;;;;;;5014607;28;20466;-64
2023/04/03 09:16:57;;;;;;;5.00;2.00;;;7.80;98.00;;;;;;5015632;28;20472;-63
2023/04/03 09:19:34;;;;;;;2.63;1.90;;;7.90;98.00;;;;;;5015443;28;20570;-64
2023/04/03 09:22:04;;;;;;;2.83;2.17;;;7.90;98.00;;;;;;5015523;28;20460;-64
2023/04/03 09:24:33;;;;;;;2.90;1.70;;;7.90;98.00;;;;;;5015403;28;20548;-64
2023/04/03 09:27:06;;;;;;;4.60;1.90;;;7.80;98.00;;;;;;5015263;28;20520;-63
2023/04/03 09:29:39;;;;;;;2.97;1.80;;;7.70;98.00;;;;;;5015425;28;20888;-64
2023/04/03 09:32:22;;;;;;;3.00;2.60;;;7.70;98.00;;;;;;5015189;28;20464;-65
2023/04/03 09:34:51;;;;;;;2.20;1.50;;;7.80;98.00;;;;;;5015496;28;20553;-63
2023/04/03 09:37:38;;;;;;;3.70;2.10;;;7.90;98.00;;;;;;5015191;28;20451;-64
2023/04/03 09:40:07;;;;;;;2.30;1.77;;;8.10;98.00;;;;;;5015250;28;20816;-64
2023/04/03 09:42:42;;;;;;;1.77;1.50;;;8.20;98.00;;;;;;5013891;28;20511;-64
2023/04/03 09:45:23;;;;;;;2.37;1.90;;;8.30;98.00;;;;;;5014653;28;20997;-63
2023/04/03 09:48:06;;;;;;;2.67;1.37;;;8.20;98.00;;;;;;5025138;28;20843;-65
2023/04/03 09:50:34;;;;;;;3.47;2.00;;;8.20;98.00;;;;;;5034073;28;20458;-64
2023/04/03 09:53:07;;;;;;;4.50;1.87;;;7.90;98.00;;;;;;5033886;28;20545;-63
2023/04/03 09:55:42;;;;;;;2.37;1.90;;;7.80;98.00;;;;;;5033921;28;20460;-64
2023/04/03 09:58:28;;;;;;;3.40;2.07;;;7.60;98.00;;;;;;5032987;28;20516;-65
2023/04/03 10:00:57;;;;;;;3.07;2.07;;;7.60;98.00;;;;;;5033832;28;20493;-63
2023/04/03 10:03:27;;;;;;;2.43;2.13;;;7.60;98.00;;;;;;5033663;28;20535;-63
2023/04/03 10:05:55;;;;;;;3.30;1.63;;;7.60;98.00;;;;;;5033635;28;20458;-64
2023/04/03 10:08:26;;;;;;;2.30;1.77;;;7.50;98.00;;;;;;5033392;28;20513;-65
2023/04/03 10:11:16;;;;;;;2.67;1.90;;;7.40;98.00;;;;;;5033468;28;20468;-64
2023/04/03 10:13:59;;;;;;;2.00;1.80;;;7.40;98.00;;;;;;5033447;28;20499;-63
2023/04/03 10:16:30;;;;;;;4.33;2.00;;;7.30;98.00;;;;;;5033352;28;20497;-64
2023/04/03 10:19:18;;;;;;;2.37;1.73;;;7.40;98.00;;;;;;5033099;28;20470;-64
2023/04/03 10:21:50;;;;;;;2.60;1.50;;;7.60;98.00;;;;;;5033320;28;20460;-64
2023/04/03 10:24:26;;;;;;;1.60;1.40;;;7.70;98.00;;;;;;5031976;28;20482;-65
2023/04/03 10:27:00;;;;;;;6.90;1.70;;;7.80;98.00;;;;;;5033368;28;20460;-63
2023/04/03 10:29:41;;;;;;;1.30;1.30;;;7.90;98.00;;;;;;5033383;28;20502;-63
2023/04/03 10:32:27;;;;;;;1.90;1.63;;;7.90;98.00;;;;;;5033211;28;20460;-62
2023/04/03 10:35:01;;;;;;;2.53;1.60;;;7.90;98.00;;;;;;5033090;28;20512;-66
2023/04/03 10:37:37;;;;;;;1.60;1.47;;;7.90;98.00;;;;;;5033047;28;20456;-64
2023/04/03 10:40:16;;;;;;;2.70;1.87;;;7.80;98.00;;;;;;5032815;28;20576;-64
2023/04/03 10:42:51;;;;;;;3.00;1.80;;;7.80;98.00;;;;;;5032075;28;20513;-63
2023/04/03 10:45:27;;;;;;;1.50;1.40;;;7.80;98.00;;;;;;5032972;28;20514;-63
2023/04/03 10:48:04;;;;;;;2.37;1.57;;;7.80;98.00;;;;;;5032502;28;20548;-63
2023/04/03 10:50:44;;;;;;;2.30;1.80;;;7.90;98.00;;;;;;5030442;28;20548;-65
2023/04/03 10:53:22;;;;;;;1.63;1.33;;;7.90;98.00;;;;;;5032960;28;20461;-64
2023/04/03 10:55:58;;;;;;;2.50;1.50;;;7.90;98.00;;;;;;5033147;28;20556;-65
2023/04/03 10:58:31;;;;;;;2.10;1.57;;;8.00;97.20;;;;;;5032812;28;20511;-64
2023/04/03 11:01:07;;;;;;;1.60;1.50;;;8.20;97.90;;;;;;5033022;28;20492;-63
2023/04/03 11:03:37;;;;;;;1.83;1.40;;;8.30;96.40;;;;;;5030431;28;20557;-64
2023/04/03 11:06:08;;;;;;;3.00;1.60;;;8.30;96.10;;;;;;5033000;28;20469;-65
2023/04/03 11:08:40;;;;;;;2.30;1.50;;;8.40;95.50;;;;;;5019482;28;20477;-64
2023/04/03 11:11:12;;;;;;;2.00;1.50;;;8.30;94.80;;;;;;5013234;28;20552;-64
2023/04/03 11:13:44;;;;;;;3.90;1.70;;;8.20;95.20;;;;;;5013181;28;20456;-64
2023/04/03 11:16:21;;;;;;;2.47;1.53;;;8.10;96.30;;;;;;5013342;28;20462;-64
2023/04/03 11:18:52;;;;;;;2.43;1.43;;;8.10;95.90;;;;;;5373635;22;20837;-64
2023/04/03 11:21:24;;;;;;;2.53;1.60;;;8.00;96.60;;;;;;5052296;28;20483;-64
2023/04/03 11:23:53;;;;;;;1.90;1.63;;;8.00;97.80;;;;;;5052772;28;20515;-64
2023/04/03 11:26:22;;;;;;;1.90;1.53;;;8.10;96.90;;;;;;5051244;28;20478;-63
2023/04/03 11:28:57;;;;;;;2.07;1.60;;;8.10;96.30;;;;;;5052583;28;20454;-63
2023/04/03 11:31:47;;;;;;;3.07;2.00;;;8.10;97.20;;;;;;5051514;28;20457;-63
2023/04/03 11:34:38;;;;;;;1.60;1.50;;;8.30;96.10;;;;;;5052358;28;20493;-65
2023/04/03 11:37:11;;;;;;;4.00;2.00;;;8.40;95.10;;;;;;5052754;28;20462;-65
2023/04/03 11:39:41;;;;;;;1.60;1.47;;;8.50;94.90;;;;;;5052382;28;20525;-64
2023/04/03 11:42:17;;;;;;;1.83;1.50;;;8.50;94.90;;;;;;5052372;28;20483;-64
2023/04/03 11:44:45;;;;;;;2.10;1.80;;;8.50;95.00;;;;;;5052320;28;20464;-65
2023/04/03 11:47:47;;;;;;;2.10;1.63;;;8.40;95.00;;;;;;5052444;28;20446;-65
2023/04/03 11:50:45;;;;;;;2.43;1.90;;;8.30;95.80;;;;;;5052410;28;20452;-64
2023/04/03 11:53:32;;;;;;;2.40;1.80;;;8.20;96.00;;;;;;5052369;28;20792;-64
2023/04/03 11:56:01;;;;;;;4.00;1.60;;;8.20;95.60;;;;;;5052523;28;20460;-65
2023/04/03 11:58:31;;;;;;;3.67;1.67;;;8.30;95.40;;;;;;5052024;28;20960;-64
2023/04/03 12:01:04;;;;;;;1.47;1.40;;;8.50;93.40;;;;;;5052009;28;20573;-64
2023/04/03 12:04:01;;;;;;;2.87;1.50;;;8.70;93.70;;;;;;5052117;28;20460;-65
2023/04/03 12:07:02;;;;;;;4.00;2.07;;;8.90;94.10;;;;;;5043510;28;20546;-64
2023/04/03 12:10:00;;;;;;;1.93;1.73;;;9.10;95.40;;;;;;5045841;28;20464;-64
2023/04/03 12:12:34;;;;;;;3.37;1.97;;;9.30;96.40;;;;;;5029991;28;21029;-65
2023/04/03 12:15:31;;;;;;;2.00;1.60;;;9.40;95.50;;;;;;5051380;28;20467;-64
2023/04/03 12:17:58;;;;;;;2.50;1.90;;;9.50;94.60;;;;;;5042127;28;20473;-66
2023/04/03 12:20:56;;;;;;;2.13;1.70;;;9.50;96.30;;;;;;5051128;28;20515;-65
2023/04/03 12:23:32;;;;;;;2.80;1.77;;;9.60;94.70;;;;;;5045526;28;20465;-65
2023/04/03 12:26:21;;;;;;;2.13;1.70;;;9.70;94.90;;;;;;5051031;28;20464;-65
2023/04/03 12:28:52;;;;;;;2.50;1.97;;;9.80;94.60;;;;;;5051038;28;20979;-66
2023/04/03 12:31:20;;;;;;;2.20;1.70;;;9.80;92.30;;;;;;5051377;28;20972;-65
2023/04/03 12:34:16;;;;;;;2.40;1.80;;;9.80;92.50;;;;;;5050826;28;20453;-64
2023/04/03 12:36:51;;;;;;;3.20;1.80;;;9.80;92.10;;;;;;5050889;28;20994;-66
2023/04/03 12:39:52;;;;;;;6.87;2.00;;;9.50;92.80;;;;;;5050923;28;20503;-65
2023/04/03 12:42:32;;;;;;;2.03;1.40;;;9.50;93.10;;;;;;5050795;28;20492;-64
2023/04/03 12:45:11;;;;;;;3.10;1.83;;;9.50;93.10;;;;;;5049756;28;20504;-65
2023/04/03 12:47:39;;;;;;;2.67;1.70;;;9.40;93.20;;;;;;5052904;28;20543;-65
2023/04/03 12:50:23;;;;;;;1.83;1.50;;;9.40;93.60;;;;;;5054965;28;20956;-64
2023/04/03 12:52:56;;;;;;;2.20;1.60;;;9.40;92.00;;;;;;5055313;28;20526;-65
2023/04/03 12:55:24;;;;;;;3.20;1.80;;;9.50;91.40;;;;;;5055247;28;20567;-66
2023/04/03 12:57:53;;;;;;;2.73;1.67;;;9.40;91.80;;;;;;5055177;28;20460;-64
2023/04/03 13:00:23;;;;;;;2.23;1.40;;;9.40;91.00;;;;;;5055243;28;20472;-65
2023/04/03 13:02:54;;;;;;;2.10;1.53;;;9.40;91.70;;;;;;5054857;28;20462;-65
2023/04/03 13:05:22;;;;;;;2.00;1.37;;;9.40;92.30;;;;;;5054872;28;20461;-65
2023/04/03 13:07:53;;;;;;;1.70;1.50;;;9.50;93.00;;;;;;5054684;28;20495;-65
2023/04/03 13:10:21;;;;;;;2.60;1.70;;;9.50;91.60;;;;;;5054673;28;20513;-65
2023/04/03 13:12:52;;;;;;;2.53;1.50;;;9.40;92.80;;;;;;5053735;28;21025;-65
2023/04/03 13:15:22;;;;;;;7.70;2.10;;;9.40;91.60;;;;;;5054681;28;20460;-64
2023/04/03 13:17:52;;;;;;;1.73;1.63;;;9.50;91.50;;;;;;5054447;28;20454;-64